sensor_id;sensor_type;location;lat;lon;timestamp;pressure;altitude;pressure_sealevel;temperature;humidity
5455;BME280;2750;49.050;9.250;2023-03-18T00:01:50;98328.59;;;13.03;81.49
5455;BME280;2750;49.050;9.250;2023-03-18T00:06:52;98327.09;;;12.86;81.72
5455;BME280;2750;49.050;9.250;2023-03-18T00:11:54;98324.69;;;12.69;82.65
5455;BME280;2750;49.050;9.250;2023-03-18T00:16:57;98326.00;;;12.62;82.18
5455;BME280;2750;49.050;9.250;2023-03-18T00:21:59;98321.84;;;12.60;82.27
5455;BME280;2750;49.050;9.250;2023-03-18T00:27:01;98330.00;;;12.54;81.97
5455;BME280;2750;49.050;9.250;2023-03-18T00:32:04;98327.31;;;12.55;82.50
5455;BME280;2750;49.050;9.250;2023-03-18T00:37:06;98336.72;;;12.01;83.75
5455;BME280;2750;49.050;9.250;2023-03-18T00:42:09;98356.13;;;12.24;82.81
5455;BME280;2750;49.050;9.250;2023-03-18T00:47:12;98356.97;;;12.24;82.71
5455;BME280;2750;49.050;9.250;2023-03-18T00:52:14;98348.34;;;12.24;83.24
5455;BME280;2750;49.050;9.250;2023-03-18T00:57:15;98351.41;;;12.02;83.48
5455;BME280;2750;49.050;9.250;2023-03-18T01:02:19;98360.56;;;12.08;83.33
5455;BME280;2750;49.050;9.250;2023-03-18T01:07:23;98360.88;;;12.17;82.94
5455;BME280;2750;49.050;9.250;2023-03-18T01:12:24;98352.50;;;12.12;83.43
5455;BME280;2750;49.050;9.250;2023-03-18T01:17:27;98354.47;;;12.37;82.78
5455;BME280;2750;49.050;9.250;2023-03-18T01:22:29;98343.13;;;12.52;82.26
5455;BME280;2750;49.050;9.250;2023-03-18T01:27:30;98353.53;;;12.52;82.62
5455;BME280;2750;49.050;9.250;2023-03-18T01:32:34;98345.50;;;12.69;81.60
5455;BME280;2750;49.050;9.250;2023-03-18T01:37:37;98356.03;;;12.54;81.92
5455;BME280;2750;49.050;9.250;2023-03-18T01:42:39;98347.59;;;12.36;82.31
5455;BME280;2750;49.050;9.250;2023-03-18T01:47:42;98356.44;;;12.48;82.05
5455;BME280;2750;49.050;9.250;2023-03-18T01:52:46;98356.69;;;12.43;82.21
5455;BME280;2750;49.050;9.250;2023-03-18T01:57:49;98353.38;;;12.41;82.01
5455;BME280;2750;49.050;9.250;2023-03-18T02:02:52;98358.38;;;12.30;82.07
5455;BME280;2750;49.050;9.250;2023-03-18T02:07:54;98360.81;;;12.19;81.99
5455;BME280;2750;49.050;9.250;2023-03-18T02:12:58;98358.22;;;11.89;83.29
5455;BME280;2750;49.050;9.250;2023-03-18T02:18:04;98352.94;;;11.90;83.65
5455;BME280;2750;49.050;9.250;2023-03-18T02:23:14;98363.16;;;11.79;83.63
5455;BME280;2750;49.050;9.250;2023-03-18T02:28:22;98363.53;;;11.87;83.35
5455;BME280;2750;49.050;9.250;2023-03-18T02:33:28;98364.91;;;11.79;83.72
5455;BME280;2750;49.050;9.250;2023-03-18T02:38:31;98362.63;;;11.27;85.55
5455;BME280;2750;49.050;9.250;2023-03-18T02:43:34;98353.72;;;11.47;85.09
5455;BME280;2750;49.050;9.250;2023-03-18T02:48:37;98364.44;;;11.27;85.15
5455;BME280;2750;49.050;9.250;2023-03-18T02:53:40;98369.47;;;11.14;84.79
5455;BME280;2750;49.050;9.250;2023-03-18T02:58:44;98364.25;;;11.30;84.08
5455;BME280;2750;49.050;9.250;2023-03-18T03:03:46;98373.63;;;11.17;84.52
5455;BME280;2750;49.050;9.250;2023-03-18T03:08:48;98382.50;;;10.66;86.25
5455;BME280;2750;49.050;9.250;2023-03-18T03:13:51;98381.41;;;10.70;87.03
5455;BME280;2750;49.050;9.250;2023-03-18T03:18:52;98386.34;;;10.59;87.91
5455;BME280;2750;49.050;9.250;2023-03-18T03:23:54;98396.97;;;10.21;88.97
5455;BME280;2750;49.050;9.250;2023-03-18T03:28:57;98395.31;;;10.36;88.37
5455;BME280;2750;49.050;9.250;2023-03-18T03:33:59;98392.72;;;10.69;86.61
5455;BME280;2750;49.050;9.250;2023-03-18T03:39:02;98401.41;;;10.52;87.06
5455;BME280;2750;49.050;9.250;2023-03-18T03:44:06;98397.75;;;10.72;85.63
5455;BME280;2750;49.050;9.250;2023-03-18T03:49:08;98406.47;;;9.86;88.92
5455;BME280;2750;49.050;9.250;2023-03-18T03:54:11;98412.66;;;9.84;88.38
5455;BME280;2750;49.050;9.250;2023-03-18T03:59:14;98403.34;;;10.14;87.91
5455;BME280;2750;49.050;9.250;2023-03-18T04:04:15;98401.97;;;10.24;86.79
5455;BME280;2750;49.050;9.250;2023-03-18T04:09:17;98405.94;;;10.31;86.79
5455;BME280;2750;49.050;9.250;2023-03-18T04:14:20;98400.06;;;10.11;86.85
5455;BME280;2750;49.050;9.250;2023-03-18T04:19:21;98406.19;;;9.75;87.69
5455;BME280;2750;49.050;9.250;2023-03-18T04:24:23;98414.25;;;9.69;88.64
5455;BME280;2750;49.050;9.250;2023-03-18T04:29:26;98413.31;;;9.53;89.22
5455;BME280;2750;49.050;9.250;2023-03-18T04:34:28;98417.91;;;9.82;87.50
5455;BME280;2750;49.050;9.250;2023-03-18T04:39:30;98419.59;;;10.00;86.36
5455;BME280;2750;49.050;9.250;2023-03-18T04:44:32;98418.78;;;10.00;86.86
5455;BME280;2750;49.050;9.250;2023-03-18T04:49:34;98421.34;;;9.83;86.95
5455;BME280;2750;49.050;9.250;2023-03-18T04:54:37;98430.94;;;9.98;86.05
5455;BME280;2750;49.050;9.250;2023-03-18T04:59:40;98430.72;;;9.85;85.54
5455;BME280;2750;49.050;9.250;2023-03-18T05:04:42;98431.25;;;9.57;86.86
5455;BME280;2750;49.050;9.250;2023-03-18T05:09:43;98425.94;;;9.42;87.78
5455;BME280;2750;49.050;9.250;2023-03-18T05:14:46;98420.44;;;9.31;88.37
5455;BME280;2750;49.050;9.250;2023-03-18T05:19:48;98427.25;;;9.15;88.84
5455;BME280;2750;49.050;9.250;2023-03-18T05:24:50;98423.09;;;9.29;86.13
5455;BME280;2750;49.050;9.250;2023-03-18T05:29:53;98426.53;;;9.30;86.39
5455;BME280;2750;49.050;9.250;2023-03-18T05:34:55;98431.72;;;9.11;87.41
5455;BME280;2750;49.050;9.250;2023-03-18T05:39:56;98435.06;;;9.13;87.89
5455;BME280;2750;49.050;9.250;2023-03-18T05:44:59;98437.66;;;9.13;88.71
5455;BME280;2750;49.050;9.250;2023-03-18T05:50:01;98432.00;;;9.05;88.84
5455;BME280;2750;49.050;9.250;2023-03-18T05:55:03;98424.63;;;9.33;88.37
5455;BME280;2750;49.050;9.250;2023-03-18T06:00:08;98429.16;;;9.47;87.19
5455;BME280;2750;49.050;9.250;2023-03-18T06:05:10;98438.69;;;9.46;86.95
5455;BME280;2750;49.050;9.250;2023-03-18T06:10:12;98437.25;;;9.58;86.05
5455;BME280;2750;49.050;9.250;2023-03-18T06:15:15;98441.91;;;9.69;86.40
5455;BME280;2750;49.050;9.250;2023-03-18T06:20:16;98436.53;;;9.54;85.30
5455;BME280;2750;49.050;9.250;2023-03-18T06:25:20;98445.63;;;9.63;84.96
5455;BME280;2750;49.050;9.250;2023-03-18T06:30:23;98449.00;;;9.65;85.81
5455;BME280;2750;49.050;9.250;2023-03-18T06:35:24;98450.00;;;9.44;86.31
5455;BME280;2750;49.050;9.250;2023-03-18T06:40:27;98459.69;;;9.76;85.75
5455;BME280;2750;49.050;9.250;2023-03-18T06:45:30;98458.47;;;9.83;85.35
5455;BME280;2750;49.050;9.250;2023-03-18T06:50:32;98460.53;;;9.94;84.60
5455;BME280;2750;49.050;9.250;2023-03-18T06:55:33;98469.84;;;10.32;83.89
5455;BME280;2750;49.050;9.250;2023-03-18T07:00:37;98462.41;;;11.39;80.88
5455;BME280;2750;49.050;9.250;2023-03-18T07:05:40;98463.91;;;11.90;77.39
5455;BME280;2750;49.050;9.250;2023-03-18T07:10:42;98455.88;;;13.64;74.77
5455;BME280;2750;49.050;9.250;2023-03-18T07:15:45;98455.16;;;15.88;67.48
5455;BME280;2750;49.050;9.250;2023-03-18T07:20:47;98450.75;;;15.89;66.46
5455;BME280;2750;49.050;9.250;2023-03-18T07:25:48;98451.66;;;16.46;65.00
5455;BME280;2750;49.050;9.250;2023-03-18T07:30:52;98458.63;;;17.36;63.83
5455;BME280;2750;49.050;9.250;2023-03-18T07:35:54;98458.84;;;18.19;62.10
5455;BME280;2750;49.050;9.250;2023-03-18T07:40:55;98458.44;;;19.16;59.45
5455;BME280;2750;49.050;9.250;2023-03-18T07:45:59;98457.25;;;20.27;59.03
5455;BME280;2750;49.050;9.250;2023-03-18T07:51:00;98452.38;;;19.65;59.28
5455;BME280;2750;49.050;9.250;2023-03-18T07:56:02;98460.94;;;20.73;57.53
5455;BME280;2750;49.050;9.250;2023-03-18T08:01:05;98457.84;;;22.75;54.28
5455;BME280;2750;49.050;9.250;2023-03-18T08:06:08;98444.09;;;24.13;49.61
5455;BME280;2750;49.050;9.250;2023-03-18T08:11:10;98449.81;;;25.14;47.48
5455;BME280;2750;49.050;9.250;2023-03-18T08:16:14;98454.25;;;25.91;47.15
5455;BME280;2750;49.050;9.250;2023-03-18T08:21:15;98460.22;;;25.93;46.51
5455;BME280;2750;49.050;9.250;2023-03-18T08:26:17;98462.44;;;26.73;45.24
5455;BME280;2750;49.050;9.250;2023-03-18T08:31:20;98466.53;;;26.60;45.60
5455;BME280;2750;49.050;9.250;2023-03-18T08:36:22;98467.16;;;26.02;45.90
5455;BME280;2750;49.050;9.250;2023-03-18T08:41:24;98461.84;;;27.00;45.04
5455;BME280;2750;49.050;9.250;2023-03-18T08:46:28;98464.78;;;27.34;44.96
5455;BME280;2750;49.050;9.250;2023-03-18T08:51:29;98462.31;;;27.83;44.08
5455;BME280;2750;49.050;9.250;2023-03-18T08:56:31;98453.19;;;27.92;43.24
5455;BME280;2750;49.050;9.250;2023-03-18T09:01:35;98447.88;;;26.98;44.22
5455;BME280;2750;49.050;9.250;2023-03-18T09:06:36;98443.00;;;28.02;42.73
5455;BME280;2750;49.050;9.250;2023-03-18T09:11:38;98426.81;;;29.43;41.59
5455;BME280;2750;49.050;9.250;2023-03-18T09:16:41;98437.44;;;28.40;42.38
5455;BME280;2750;49.050;9.250;2023-03-18T09:21:42;98436.47;;;27.19;43.30
5455;BME280;2750;49.050;9.250;2023-03-18T09:26:44;98441.16;;;27.17;43.08
5455;BME280;2750;49.050;9.250;2023-03-18T09:31:48;98435.78;;;26.58;42.69
5455;BME280;2750;49.050;9.250;2023-03-18T09:36:49;98445.00;;;27.58;42.24
5455;BME280;2750;49.050;9.250;2023-03-18T09:42:02;98436.44;;;27.63;42.28
5455;BME280;2750;49.050;9.250;2023-03-18T09:47:22;98419.88;;;27.67;42.96
5455;BME280;2750;49.050;9.250;2023-03-18T09:52:28;98418.13;;;25.74;44.05
5455;BME280;2750;49.050;9.250;2023-03-18T09:57:34;98412.41;;;26.31;43.05
5455;BME280;2750;49.050;9.250;2023-03-18T10:02:40;98414.44;;;26.29;44.15
5455;BME280;2750;49.050;9.250;2023-03-18T10:07:46;98413.09;;;26.62;44.38
5455;BME280;2750;49.050;9.250;2023-03-18T10:12:56;98409.56;;;26.32;44.23
5455;BME280;2750;49.050;9.250;2023-03-18T10:18:10;98403.88;;;26.12;44.32
5455;BME280;2750;49.050;9.250;2023-03-18T10:23:19;98410.22;;;24.88;44.83
5455;BME280;2750;49.050;9.250;2023-03-18T10:28:41;98408.34;;;24.97;45.05
5455;BME280;2750;49.050;9.250;2023-03-18T10:33:51;98413.69;;;22.58;46.63
5455;BME280;2750;49.050;9.250;2023-03-18T10:38:56;98406.59;;;22.58;46.97
5455;BME280;2750;49.050;9.250;2023-03-18T10:44:02;98408.69;;;22.03;48.07
5455;BME280;2750;49.050;9.250;2023-03-18T10:49:10;98405.50;;;22.17;47.90
5455;BME280;2750;49.050;9.250;2023-03-18T10:54:17;98396.53;;;22.10;48.13
5455;BME280;2750;49.050;9.250;2023-03-18T10:59:21;98385.63;;;21.78;48.88
5455;BME280;2750;49.050;9.250;2023-03-18T11:04:26;98384.66;;;21.79;49.23
5455;BME280;2750;49.050;9.250;2023-03-18T11:09:31;98385.44;;;22.58;47.89
5455;BME280;2750;49.050;9.250;2023-03-18T11:14:34;98386.88;;;22.27;48.65
5455;BME280;2750;49.050;9.250;2023-03-18T11:19:39;98387.91;;;22.08;48.55
5455;BME280;2750;49.050;9.250;2023-03-18T11:25:00;98383.69;;;22.41;48.11
5455;BME280;2750;49.050;9.250;2023-03-18T11:30:10;98379.88;;;21.92;49.16
5455;BME280;2750;49.050;9.250;2023-03-18T11:35:18;98372.78;;;22.44;48.74
5455;BME280;2750;49.050;9.250;2023-03-18T11:40:25;98364.47;;;23.41;48.05
5455;BME280;2750;49.050;9.250;2023-03-18T11:45:49;98353.41;;;23.45;47.03
5455;BME280;2750;49.050;9.250;2023-03-18T11:51:01;98356.75;;;23.79;47.27
5455;BME280;2750;49.050;9.250;2023-03-18T11:56:12;98339.66;;;23.66;48.34
5455;BME280;2750;49.050;9.250;2023-03-18T12:01:22;98337.00;;;23.50;47.21
5455;BME280;2750;49.050;9.250;2023-03-18T12:06:32;98327.31;;;23.16;47.77
5455;BME280;2750;49.050;9.250;2023-03-18T12:11:50;98323.88;;;23.40;46.65
5455;BME280;2750;49.050;9.250;2023-03-18T12:17:02;98325.09;;;23.78;46.28
5455;BME280;2750;49.050;9.250;2023-03-18T12:22:21;98327.09;;;23.60;45.74
5455;BME280;2750;49.050;9.250;2023-03-18T12:27:31;98320.28;;;23.65;47.30
5455;BME280;2750;49.050;9.250;2023-03-18T12:32:39;98317.16;;;24.18;45.09
5455;BME280;2750;49.050;9.250;2023-03-18T12:43:49;98311.50;;;24.05;45.18
5455;BME280;2750;49.050;9.250;2023-03-18T12:48:56;98295.38;;;25.17;43.35
5455;BME280;2750;49.050;9.250;2023-03-18T12:54:09;98296.50;;;25.45;44.10
5455;BME280;2750;49.050;9.250;2023-03-18T12:59:21;98294.47;;;25.78;43.57
5455;BME280;2750;49.050;9.250;2023-03-18T13:04:27;98277.56;;;25.71;42.97
5455;BME280;2750;49.050;9.250;2023-03-18T13:09:35;98277.69;;;25.55;43.08
5455;BME280;2750;49.050;9.250;2023-03-18T13:14:48;98277.16;;;25.97;42.84
5455;BME280;2750;49.050;9.250;2023-03-18T13:19:51;98272.66;;;25.97;42.79
5455;BME280;2750;49.050;9.250;2023-03-18T13:25:04;98270.16;;;24.82;42.81
5455;BME280;2750;49.050;9.250;2023-03-18T13:30:23;98270.66;;;24.86;43.49
5455;BME280;2750;49.050;9.250;2023-03-18T13:35:37;98271.34;;;25.10;43.68
5455;BME280;2750;49.050;9.250;2023-03-18T13:41:03;98265.91;;;27.40;41.91
5455;BME280;2750;49.050;9.250;2023-03-18T13:46:16;98260.44;;;27.69;41.12
5455;BME280;2750;49.050;9.250;2023-03-18T13:51:39;98263.06;;;28.46;39.68
5455;BME280;2750;49.050;9.250;2023-03-18T13:56:49;98263.78;;;28.27;40.18
5455;BME280;2750;49.050;9.250;2023-03-18T14:01:57;98268.31;;;28.33;39.54
5455;BME280;2750;49.050;9.250;2023-03-18T14:07:14;98249.03;;;29.52;38.84
5455;BME280;2750;49.050;9.250;2023-03-18T14:12:36;98248.25;;;28.84;39.51
5455;BME280;2750;49.050;9.250;2023-03-18T14:17:46;98255.81;;;27.78;41.04
5455;BME280;2750;49.050;9.250;2023-03-18T14:22:49;98237.03;;;27.01;41.07
5455;BME280;2750;49.050;9.250;2023-03-18T14:27:54;98231.19;;;25.88;42.03
5455;BME280;2750;49.050;9.250;2023-03-18T14:33:00;98234.53;;;24.99;43.25
5455;BME280;2750;49.050;9.250;2023-03-18T14:38:07;98228.88;;;24.41;43.92
5455;BME280;2750;49.050;9.250;2023-03-18T14:43:16;98221.34;;;24.05;44.24
5455;BME280;2750;49.050;9.250;2023-03-18T14:48:23;98220.94;;;24.33;43.58
5455;BME280;2750;49.050;9.250;2023-03-18T14:53:32;98210.84;;;23.57;45.92
5455;BME280;2750;49.050;9.250;2023-03-18T14:58:35;98217.75;;;22.51;46.62
5455;BME280;2750;49.050;9.250;2023-03-18T15:03:38;98206.13;;;22.86;46.72
5455;BME280;2750;49.050;9.250;2023-03-18T15:08:47;98209.63;;;22.95;46.53
5455;BME280;2750;49.050;9.250;2023-03-18T15:13:53;98215.63;;;22.63;45.79
5455;BME280;2750;49.050;9.250;2023-03-18T15:18:55;98207.13;;;22.85;45.78
5455;BME280;2750;49.050;9.250;2023-03-18T15:23:59;98205.50;;;23.24;46.09
5455;BME280;2750;49.050;9.250;2023-03-18T15:29:22;98211.78;;;23.23;46.16
5455;BME280;2750;49.050;9.250;2023-03-18T15:34:28;98208.81;;;23.34;46.33
5455;BME280;2750;49.050;9.250;2023-03-18T15:39:33;98214.28;;;23.73;45.17
5455;BME280;2750;49.050;9.250;2023-03-18T15:44:37;98213.13;;;23.27;45.65
5455;BME280;2750;49.050;9.250;2023-03-18T15:49:51;98213.94;;;23.12;47.05
5455;BME280;2750;49.050;9.250;2023-03-18T15:54:53;98208.47;;;22.05;52.10
5455;BME280;2750;49.050;9.250;2023-03-18T15:59:57;98219.13;;;20.91;55.92
5455;BME280;2750;49.050;9.250;2023-03-18T16:05:07;98213.97;;;20.54;57.86
5455;BME280;2750;49.050;9.250;2023-03-18T16:10:14;98224.63;;;20.25;58.33
5455;BME280;2750;49.050;9.250;2023-03-18T16:15:21;98235.53;;;20.67;57.78
5455;BME280;2750;49.050;9.250;2023-03-18T16:20:25;98235.63;;;20.48;57.86
5455;BME280;2750;49.050;9.250;2023-03-18T16:25:27;98252.78;;;20.34;57.48
5455;BME280;2750;49.050;9.250;2023-03-18T16:30:31;98251.66;;;20.27;57.37
5455;BME280;2750;49.050;9.250;2023-03-18T16:35:35;98261.03;;;20.02;57.85
5455;BME280;2750;49.050;9.250;2023-03-18T16:40:37;98255.84;;;19.74;58.84
5455;BME280;2750;49.050;9.250;2023-03-18T16:45:40;98263.88;;;19.63;59.36
5455;BME280;2750;49.050;9.250;2023-03-18T16:50:43;98273.31;;;19.55;59.24
5455;BME280;2750;49.050;9.250;2023-03-18T16:55:48;98271.69;;;19.54;59.24
5455;BME280;2750;49.050;9.250;2023-03-18T17:00:52;98290.75;;;19.37;60.14
5455;BME280;2750;49.050;9.250;2023-03-18T17:05:54;98283.03;;;19.55;59.38
5455;BME280;2750;49.050;9.250;2023-03-18T17:10:58;98296.63;;;19.70;59.19
5455;BME280;2750;49.050;9.250;2023-03-18T17:16:03;98305.47;;;19.49;59.77
5455;BME280;2750;49.050;9.250;2023-03-18T17:21:05;98304.38;;;19.42;60.22
5455;BME280;2750;49.050;9.250;2023-03-18T17:26:10;98306.50;;;18.99;61.62
5455;BME280;2750;49.050;9.250;2023-03-18T17:31:15;98306.97;;;18.54;63.40
5455;BME280;2750;49.050;9.250;2023-03-18T17:36:16;98317.28;;;18.46;63.47
5455;BME280;2750;49.050;9.250;2023-03-18T17:41:19;98327.16;;;18.33;63.51
5455;BME280;2750;49.050;9.250;2023-03-18T17:46:22;98331.34;;;18.15;64.02
5455;BME280;2750;49.050;9.250;2023-03-18T17:51:24;98322.94;;;18.21;63.93
5455;BME280;2750;49.050;9.250;2023-03-18T17:56:27;98328.28;;;18.10;64.58
5455;BME280;2750;49.050;9.250;2023-03-18T18:01:31;98332.69;;;17.36;66.37
5455;BME280;2750;49.050;9.250;2023-03-18T18:06:33;98330.78;;;17.38;66.65
5455;BME280;2750;49.050;9.250;2023-03-18T18:11:36;98331.50;;;17.29;66.11
5455;BME280;2750;49.050;9.250;2023-03-18T18:16:40;98326.44;;;17.16;66.96
5455;BME280;2750;49.050;9.250;2023-03-18T18:21:43;98325.88;;;17.13;67.20
5455;BME280;2750;49.050;9.250;2023-03-18T18:26:45;98334.00;;;16.88;67.71
5455;BME280;2750;49.050;9.250;2023-03-18T18:31:49;98339.50;;;16.51;67.71
5455;BME280;2750;49.050;9.250;2023-03-18T18:36:51;98332.13;;;16.90;68.63
5455;BME280;2750;49.050;9.250;2023-03-18T18:41:52;98334.97;;;16.64;67.64
5455;BME280;2750;49.050;9.250;2023-03-18T18:46:55;98341.88;;;16.88;67.57
5455;BME280;2750;49.050;9.250;2023-03-18T18:51:57;98344.47;;;16.99;67.20
5455;BME280;2750;49.050;9.250;2023-03-18T18:57:00;98344.97;;;16.93;66.46
5455;BME280;2750;49.050;9.250;2023-03-18T19:02:20;98347.72;;;16.47;67.20
5455;BME280;2750;49.050;9.250;2023-03-18T19:07:27;98356.50;;;16.23;67.34
5455;BME280;2750;49.050;9.250;2023-03-18T19:12:29;98358.22;;;15.90;68.95
5455;BME280;2750;49.050;9.250;2023-03-18T19:17:32;98355.16;;;15.61;70.69
5455;BME280;2750;49.050;9.250;2023-03-18T19:22:34;98365.53;;;15.73;68.87
5455;BME280;2750;49.050;9.250;2023-03-18T19:27:35;98360.09;;;15.88;69.87
5455;BME280;2750;49.050;9.250;2023-03-18T19:32:38;98366.09;;;16.01;70.63
5455;BME280;2750;49.050;9.250;2023-03-18T19:37:43;98362.75;;;15.99;71.04
5455;BME280;2750;49.050;9.250;2023-03-18T19:42:45;98361.47;;;16.04;70.53
5455;BME280;2750;49.050;9.250;2023-03-18T19:47:48;98361.44;;;15.93;71.62
5455;BME280;2750;49.050;9.250;2023-03-18T19:52:50;98361.53;;;15.92;70.61
5455;BME280;2750;49.050;9.250;2023-03-18T19:57:53;98378.31;;;15.54;70.37
5455;BME280;2750;49.050;9.250;2023-03-18T20:02:58;98389.56;;;15.67;68.88
5455;BME280;2750;49.050;9.250;2023-03-18T20:08:00;98391.19;;;15.68;69.61
5455;BME280;2750;49.050;9.250;2023-03-18T20:13:02;98390.72;;;15.63;71.09
5455;BME280;2750;49.050;9.250;2023-03-18T20:18:12;98403.00;;;15.50;72.12
5455;BME280;2750;49.050;9.250;2023-03-18T20:23:18;98403.88;;;15.38;73.03
5455;BME280;2750;49.050;9.250;2023-03-18T20:28:23;98404.91;;;15.12;73.94
5455;BME280;2750;49.050;9.250;2023-03-18T20:33:26;98408.66;;;15.08;74.91
5455;BME280;2750;49.050;9.250;2023-03-18T20:38:29;98412.50;;;15.15;74.50
5455;BME280;2750;49.050;9.250;2023-03-18T20:43:32;98416.97;;;15.02;75.15
5455;BME280;2750;49.050;9.250;2023-03-18T20:48:35;98413.50;;;15.01;74.64
5455;BME280;2750;49.050;9.250;2023-03-18T20:53:37;98417.13;;;15.11;74.11
5455;BME280;2750;49.050;9.250;2023-03-18T20:58:39;98419.13;;;15.08;74.49
5455;BME280;2750;49.050;9.250;2023-03-18T21:03:43;98424.91;;;15.00;74.65
5455;BME280;2750;49.050;9.250;2023-03-18T21:08:45;98422.19;;;15.02;74.08
5455;BME280;2750;49.050;9.250;2023-03-18T21:13:46;98427.19;;;15.05;74.09
5455;BME280;2750;49.050;9.250;2023-03-18T21:18:50;98421.59;;;14.86;74.88
5455;BME280;2750;49.050;9.250;2023-03-18T21:23:52;98425.34;;;14.81;75.20
5455;BME280;2750;49.050;9.250;2023-03-18T21:28:54;98428.06;;;14.80;74.79
5455;BME280;2750;49.050;9.250;2023-03-18T21:33:57;98428.72;;;14.71;75.19
5455;BME280;2750;49.050;9.250;2023-03-18T21:38:59;98427.69;;;14.48;75.71
5455;BME280;2750;49.050;9.250;2023-03-18T21:44:00;98427.25;;;14.54;75.48
5455;BME280;2750;49.050;9.250;2023-03-18T21:49:04;98423.28;;;14.36;76.10
5455;BME280;2750;49.050;9.250;2023-03-18T21:54:13;98419.78;;;14.23;77.29
5455;BME280;2750;49.050;9.250;2023-03-18T21:59:17;98426.16;;;14.06;78.08
5455;BME280;2750;49.050;9.250;2023-03-18T22:04:20;98415.28;;;14.12;78.13
5455;BME280;2750;49.050;9.250;2023-03-18T22:09:21;98419.00;;;13.96;79.22
5455;BME280;2750;49.050;9.250;2023-03-18T22:14:25;98420.09;;;14.06;78.34
5455;BME280;2750;49.050;9.250;2023-03-18T22:19:28;98424.16;;;14.10;78.26
5455;BME280;2750;49.050;9.250;2023-03-18T22:24:30;98422.81;;;14.17;78.01
5455;BME280;2750;49.050;9.250;2023-03-18T22:29:31;98432.63;;;14.13;78.16
5455;BME280;2750;49.050;9.250;2023-03-18T22:34:34;98429.84;;;13.89;78.17
5455;BME280;2750;49.050;9.250;2023-03-18T22:39:36;98428.47;;;13.45;80.30
5455;BME280;2750;49.050;9.250;2023-03-18T22:44:37;98457.94;;;13.18;80.41
5455;BME280;2750;49.050;9.250;2023-03-18T22:49:40;98441.66;;;13.68;78.65
5455;BME280;2750;49.050;9.250;2023-03-18T22:54:42;98448.19;;;13.75;78.38
5455;BME280;2750;49.050;9.250;2023-03-18T22:59:43;98452.00;;;13.43;79.41
5455;BME280;2750;49.050;9.250;2023-03-18T23:04:48;98458.69;;;13.47;79.40
5455;BME280;2750;49.050;9.250;2023-03-18T23:09:50;98466.38;;;13.36;79.25
5455;BME280;2750;49.050;9.250;2023-03-18T23:14:52;98471.97;;;13.02;80.40
5455;BME280;2750;49.050;9.250;2023-03-18T23:19:56;98461.19;;;12.93;81.72
5455;BME280;2750;49.050;9.250;2023-03-18T23:24:58;98465.00;;;12.74;82.99
5455;BME280;2750;49.050;9.250;2023-03-18T23:29:59;98462.13;;;12.78;83.13
5455;BME280;2750;49.050;9.250;2023-03-18T23:35:03;98454.66;;;13.01;82.07
5455;BME280;2750;49.050;9.250;2023-03-18T23:40:06;98461.69;;;12.28;83.86
5455;BME280;2750;49.050;9.250;2023-03-18T23:45:08;98455.31;;;12.04;85.02
5455;BME280;2750;49.050;9.250;2023-03-18T23:50:11;98460.38;;;12.35;82.57
5455;BME280;2750;49.050;9.250;2023-03-18T23:55:13;98471.13;;;12.44;81.57
